Ancona, Illinois
Current Conditions -  °F | °C
As of 3:55 PM on Thursday 27 Nov 2014 (Local Time) from KPNT Reporting Station
Light Snow Light Snow  
Wind Chill: 13°   Ceiling: 2400
Heat Index: 26°   Visibility: 10mi
Dew Point: 19°   Wind: 16mph
Humidity: 75%   Direction: 280°W
Pressure: 30.42"   Gusts: NA
Location:  41.04°N, 88.87°W
Report Text: KPNT 272155Z AUTO 28014KT 10SM -SN BKN024 OVC028 M03/M07 A3042 RMK AO2 T10351073
Loading
Personal Weather Stations






























Interactive Weather Map New forecast layout! Learn more

10-Day Weather Forecast

Advertisements
Track Severe Weather on mobile